sensor_id;sensor_type;location;lat;lon;timestamp;pressure;altitude;pressure_sealevel;temperature;humidity
57000;BME280;42891;50.006;21.964;2022-07-06T00:02:38;98860.63;;;19.54;83.14
57000;BME280;42891;50.006;21.964;2022-07-06T00:06:38;98876.75;;;19.25;82.49
57000;BME280;42891;50.006;21.964;2022-07-06T00:10:39;98837.75;;;19.51;82.29
57000;BME280;42891;50.006;21.964;2022-07-06T00:14:39;98807.59;;;19.36;82.88
57000;BME280;42891;50.006;21.964;2022-07-06T00:18:39;98812.31;;;19.27;84.31
57000;BME280;42891;50.006;21.964;2022-07-06T00:22:40;98798.13;;;19.33;83.04
57000;BME280;42891;50.006;21.964;2022-07-06T00:26:40;98786.72;;;19.18;83.47
57000;BME280;42891;50.006;21.964;2022-07-06T00:30:40;98810.09;;;19.37;82.55
57000;BME280;42891;50.006;21.964;2022-07-06T00:34:41;98761.47;;;19.34;82.88
57000;BME280;42891;50.006;21.964;2022-07-06T00:38:41;98739.75;;;19.15;84.12
57000;BME280;42891;50.006;21.964;2022-07-06T00:42:43;98753.78;;;19.17;84.47
57000;BME280;42891;50.006;21.964;2022-07-06T00:46:44;98785.78;;;19.39;82.37
57000;BME280;42891;50.006;21.964;2022-07-06T00:50:44;98780.53;;;19.17;82.49
57000;BME280;42891;50.006;21.964;2022-07-06T00:54:45;98748.19;;;19.12;83.56
57000;BME280;42891;50.006;21.964;2022-07-06T00:58:46;98740.97;;;19.06;84.55
57000;BME280;42891;50.006;21.964;2022-07-06T01:02:47;98764.53;;;19.24;83.29
57000;BME280;42891;50.006;21.964;2022-07-06T01:06:48;98777.47;;;19.20;83.04
57000;BME280;42891;50.006;21.964;2022-07-06T01:10:48;98757.81;;;19.06;83.78
57000;BME280;42891;50.006;21.964;2022-07-06T01:14:49;98749.75;;;19.00;83.84
57000;BME280;42891;50.006;21.964;2022-07-06T01:18:50;98716.91;;;18.84;84.69
57000;BME280;42891;50.006;21.964;2022-07-06T01:22:52;98744.81;;;18.97;84.85
57000;BME280;42891;50.006;21.964;2022-07-06T01:26:52;98751.00;;;19.04;85.58
57000;BME280;42891;50.006;21.964;2022-07-06T01:30:53;98729.75;;;18.96;84.88
57000;BME280;42891;50.006;21.964;2022-07-06T01:34:53;98730.63;;;19.03;84.67
57000;BME280;42891;50.006;21.964;2022-07-06T01:38:55;98721.75;;;18.96;84.76
57000;BME280;42891;50.006;21.964;2022-07-06T01:42:58;98726.69;;;18.99;84.65
57000;BME280;42891;50.006;21.964;2022-07-06T01:46:58;98720.53;;;18.98;84.99
57000;BME280;42891;50.006;21.964;2022-07-06T01:50:58;98707.31;;;18.90;85.89
57000;BME280;42891;50.006;21.964;2022-07-06T01:54:59;98712.50;;;18.98;85.98
57000;BME280;42891;50.006;21.964;2022-07-06T01:58:59;98733.25;;;18.96;85.95
57000;BME280;42891;50.006;21.964;2022-07-06T02:02:59;98751.56;;;18.93;86.14
57000;BME280;42891;50.006;21.964;2022-07-06T02:07:00;98784.72;;;18.70;86.88
57000;BME280;42891;50.006;21.964;2022-07-06T02:11:03;98801.19;;;18.73;87.68
57000;BME280;42891;50.006;21.964;2022-07-06T02:15:04;98794.47;;;18.84;88.14
57000;BME280;42891;50.006;21.964;2022-07-06T02:19:05;98801.19;;;18.95;87.88
57000;BME280;42891;50.006;21.964;2022-07-06T02:23:05;98795.00;;;18.95;88.60
57000;BME280;42891;50.006;21.964;2022-07-06T02:27:05;98800.38;;;19.01;88.40
57000;BME280;42891;50.006;21.964;2022-07-06T02:31:06;98810.16;;;18.87;88.46
57000;BME280;42891;50.006;21.964;2022-07-06T02:35:06;98820.66;;;18.89;88.29
57000;BME280;42891;50.006;21.964;2022-07-06T02:39:07;98829.34;;;18.91;88.53
57000;BME280;42891;50.006;21.964;2022-07-06T02:43:07;98837.78;;;18.95;88.85
57000;BME280;42891;50.006;21.964;2022-07-06T02:47:08;98840.47;;;18.95;88.40
57000;BME280;42891;50.006;21.964;2022-07-06T02:51:08;98833.50;;;19.00;87.78
57000;BME280;42891;50.006;21.964;2022-07-06T02:55:08;98826.53;;;18.78;88.29
57000;BME280;42891;50.006;21.964;2022-07-06T02:59:09;98828.06;;;18.87;87.96
57000;BME280;42891;50.006;21.964;2022-07-06T03:03:10;98820.56;;;18.76;87.68
57000;BME280;42891;50.006;21.964;2022-07-06T03:07:11;98829.75;;;18.88;87.72
57000;BME280;42891;50.006;21.964;2022-07-06T03:11:11;98823.16;;;18.69;88.76
57000;BME280;42891;50.006;21.964;2022-07-06T03:15:11;98826.28;;;18.72;87.96
57000;BME280;42891;50.006;21.964;2022-07-06T03:19:12;98832.13;;;18.61;88.55
57000;BME280;42891;50.006;21.964;2022-07-06T03:23:12;98833.28;;;18.73;88.45
57000;BME280;42891;50.006;21.964;2022-07-06T03:27:13;98841.56;;;18.79;88.38
57000;BME280;42891;50.006;21.964;2022-07-06T03:31:13;98838.75;;;18.65;88.02
57000;BME280;42891;50.006;21.964;2022-07-06T03:35:13;98843.50;;;18.63;88.33
57000;BME280;42891;50.006;21.964;2022-07-06T03:39:14;98840.63;;;18.65;89.19
57000;BME280;42891;50.006;21.964;2022-07-06T03:43:14;98847.78;;;18.64;88.77
57000;BME280;42891;50.006;21.964;2022-07-06T03:47:14;98845.50;;;18.61;89.26
57000;BME280;42891;50.006;21.964;2022-07-06T03:51:15;98847.50;;;18.52;89.33
57000;BME280;42891;50.006;21.964;2022-07-06T03:55:15;98855.25;;;18.47;90.03
57000;BME280;42891;50.006;21.964;2022-07-06T03:59:15;98843.88;;;18.38;89.47
57000;BME280;42891;50.006;21.964;2022-07-06T04:03:16;98852.16;;;18.44;89.36
57000;BME280;42891;50.006;21.964;2022-07-06T04:07:16;98851.84;;;18.53;88.87
57000;BME280;42891;50.006;21.964;2022-07-06T04:11:16;98859.72;;;18.62;89.02
57000;BME280;42891;50.006;21.964;2022-07-06T04:15:17;98855.50;;;18.52;88.50
57000;BME280;42891;50.006;21.964;2022-07-06T04:19:17;98870.09;;;18.50;88.20
57000;BME280;42891;50.006;21.964;2022-07-06T04:23:17;98872.97;;;18.48;87.75
57000;BME280;42891;50.006;21.964;2022-07-06T04:27:17;98863.38;;;18.17;87.88
57000;BME280;42891;50.006;21.964;2022-07-06T04:31:18;98860.44;;;18.12;88.67
57000;BME280;42891;50.006;21.964;2022-07-06T04:35:18;98878.84;;;18.22;87.86
57000;BME280;42891;50.006;21.964;2022-07-06T04:39:19;98879.94;;;18.28;87.92
57000;BME280;42891;50.006;21.964;2022-07-06T04:43:19;98882.72;;;18.19;87.40
57000;BME280;42891;50.006;21.964;2022-07-06T04:47:19;98894.38;;;18.33;87.10
57000;BME280;42891;50.006;21.964;2022-07-06T04:51:20;98895.69;;;18.22;86.84
57000;BME280;42891;50.006;21.964;2022-07-06T04:55:20;98907.91;;;18.10;87.98
57000;BME280;42891;50.006;21.964;2022-07-06T04:59:21;98904.38;;;18.10;86.95
57000;BME280;42891;50.006;21.964;2022-07-06T05:03:21;98904.38;;;18.10;87.08
57000;BME280;42891;50.006;21.964;2022-07-06T05:07:21;98933.69;;;18.18;86.89
57000;BME280;42891;50.006;21.964;2022-07-06T05:11:22;98923.66;;;18.05;86.63
57000;BME280;42891;50.006;21.964;2022-07-06T05:15:22;98918.84;;;17.85;87.37
57000;BME280;42891;50.006;21.964;2022-07-06T05:19:22;98928.44;;;18.10;86.72
57000;BME280;42891;50.006;21.964;2022-07-06T05:23:23;98929.91;;;17.97;86.79
57000;BME280;42891;50.006;21.964;2022-07-06T05:27:23;98927.63;;;18.09;87.28
57000;BME280;42891;50.006;21.964;2022-07-06T05:31:24;98935.00;;;17.92;87.70
57000;BME280;42891;50.006;21.964;2022-07-06T05:35:24;98933.78;;;18.10;86.88
57000;BME280;42891;50.006;21.964;2022-07-06T05:39:25;98938.69;;;18.06;87.02
57000;BME280;42891;50.006;21.964;2022-07-06T05:43:25;98952.38;;;18.03;86.89
57000;BME280;42891;50.006;21.964;2022-07-06T05:47:25;98922.28;;;17.94;87.30
57000;BME280;42891;50.006;21.964;2022-07-06T05:51:44;98944.28;;;17.81;87.15
57000;BME280;42891;50.006;21.964;2022-07-06T05:55:46;98930.00;;;17.74;87.33
57000;BME280;42891;50.006;21.964;2022-07-06T05:59:46;98961.34;;;17.95;87.66
57000;BME280;42891;50.006;21.964;2022-07-06T06:03:47;98961.34;;;17.95;87.49
57000;BME280;42891;50.006;21.964;2022-07-06T06:07:47;98963.78;;;17.82;87.69
57000;BME280;42891;50.006;21.964;2022-07-06T06:11:50;98973.84;;;17.80;87.77
57000;BME280;42891;50.006;21.964;2022-07-06T06:15:50;98964.72;;;17.89;86.65
57000;BME280;42891;50.006;21.964;2022-07-06T06:19:50;98973.94;;;17.71;87.04
57000;BME280;42891;50.006;21.964;2022-07-06T06:23:51;98969.22;;;17.73;87.27
57000;BME280;42891;50.006;21.964;2022-07-06T06:27:51;98982.91;;;17.94;86.04
57000;BME280;42891;50.006;21.964;2022-07-06T06:31:51;98978.09;;;18.04;85.87
57000;BME280;42891;50.006;21.964;2022-07-06T06:35:52;98986.03;;;18.12;87.26
57000;BME280;42891;50.006;21.964;2022-07-06T06:39:53;98990.69;;;18.25;85.46
57000;BME280;42891;50.006;21.964;2022-07-06T06:43:54;99000.75;;;18.23;85.01
57000;BME280;42891;50.006;21.964;2022-07-06T06:47:54;98990.16;;;18.15;84.62
57000;BME280;42891;50.006;21.964;2022-07-06T06:51:54;99012.28;;;18.23;84.81
57000;BME280;42891;50.006;21.964;2022-07-06T06:55:55;99024.91;;;18.15;84.17
57000;BME280;42891;50.006;21.964;2022-07-06T06:59:55;99031.72;;;18.17;84.55
57000;BME280;42891;50.006;21.964;2022-07-06T07:03:56;99038.91;;;18.32;85.16
57000;BME280;42891;50.006;21.964;2022-07-06T07:07:56;99040.28;;;18.43;84.40
57000;BME280;42891;50.006;21.964;2022-07-06T07:11:59;99020.56;;;18.29;84.76
57000;BME280;42891;50.006;21.964;2022-07-06T07:15:59;99035.94;;;18.42;83.76
57000;BME280;42891;50.006;21.964;2022-07-06T07:19:59;99036.13;;;18.55;82.31
57000;BME280;42891;50.006;21.964;2022-07-06T07:24:00;99035.84;;;18.65;83.56
57000;BME280;42891;50.006;21.964;2022-07-06T07:28:00;99035.56;;;18.60;79.89
57000;BME280;42891;50.006;21.964;2022-07-06T07:32:00;99041.63;;;18.68;79.95
57000;BME280;42891;50.006;21.964;2022-07-06T07:36:01;99044.94;;;18.70;81.24
57000;BME280;42891;50.006;21.964;2022-07-06T07:40:03;99055.47;;;18.72;78.80
57000;BME280;42891;50.006;21.964;2022-07-06T07:44:04;99053.41;;;18.89;78.18
57000;BME280;42891;50.006;21.964;2022-07-06T07:48:05;99065.75;;;19.05;80.55
57000;BME280;42891;50.006;21.964;2022-07-06T07:52:06;99057.38;;;18.93;74.96
57000;BME280;42891;50.006;21.964;2022-07-06T07:56:07;99073.00;;;18.89;74.94
57000;BME280;42891;50.006;21.964;2022-07-06T08:00:08;99051.63;;;18.96;74.54
57000;BME280;42891;50.006;21.964;2022-07-06T08:04:09;99076.25;;;19.06;73.01
57000;BME280;42891;50.006;21.964;2022-07-06T08:08:09;99066.19;;;19.08;74.14
57000;BME280;42891;50.006;21.964;2022-07-06T08:12:10;99075.63;;;19.26;73.43
57000;BME280;42891;50.006;21.964;2022-07-06T08:16:10;99082.66;;;19.27;75.02
57000;BME280;42891;50.006;21.964;2022-07-06T08:20:11;99080.69;;;19.36;72.77
57000;BME280;42891;50.006;21.964;2022-07-06T08:24:11;99077.31;;;19.27;70.22
57000;BME280;42891;50.006;21.964;2022-07-06T08:28:11;99088.66;;;19.51;70.25
57000;BME280;42891;50.006;21.964;2022-07-06T08:32:12;99089.47;;;19.73;73.38
57000;BME280;42891;50.006;21.964;2022-07-06T08:36:12;99078.50;;;19.68;72.27
57000;BME280;42891;50.006;21.964;2022-07-06T08:40:12;99092.28;;;19.86;70.96
57000;BME280;42891;50.006;21.964;2022-07-06T08:44:16;99095.81;;;19.87;69.61
57000;BME280;42891;50.006;21.964;2022-07-06T08:48:17;99099.50;;;19.86;70.33
57000;BME280;42891;50.006;21.964;2022-07-06T08:52:18;99105.44;;;19.81;69.08
57000;BME280;42891;50.006;21.964;2022-07-06T08:56:19;99117.22;;;19.87;67.45
57000;BME280;42891;50.006;21.964;2022-07-06T09:00:20;99122.13;;;19.83;66.32
57000;BME280;42891;50.006;21.964;2022-07-06T09:04:22;99102.97;;;19.80;68.18
57000;BME280;42891;50.006;21.964;2022-07-06T09:08:24;99117.50;;;19.92;67.74
57000;BME280;42891;50.006;21.964;2022-07-06T09:12:27;99116.56;;;20.06;68.42
57000;BME280;42891;50.006;21.964;2022-07-06T09:16:29;99125.84;;;19.82;64.98
57000;BME280;42891;50.006;21.964;2022-07-06T09:20:30;99115.50;;;20.01;67.20
57000;BME280;42891;50.006;21.964;2022-07-06T09:24:31;99126.28;;;20.14;67.34
57000;BME280;42891;50.006;21.964;2022-07-06T09:28:44;99139.03;;;20.05;64.74
57000;BME280;42891;50.006;21.964;2022-07-06T09:32:46;99135.59;;;20.18;66.85
57000;BME280;42891;50.006;21.964;2022-07-06T09:36:49;99133.38;;;20.22;64.72
57000;BME280;42891;50.006;21.964;2022-07-06T09:40:49;99142.22;;;20.22;63.90
57000;BME280;42891;50.006;21.964;2022-07-06T09:44:50;99151.03;;;20.38;63.23
57000;BME280;42891;50.006;21.964;2022-07-06T09:48:52;99150.69;;;20.48;62.41
57000;BME280;42891;50.006;21.964;2022-07-06T09:52:54;99147.81;;;20.49;62.61
57000;BME280;42891;50.006;21.964;2022-07-06T09:56:56;99151.53;;;20.55;63.35
57000;BME280;42891;50.006;21.964;2022-07-06T10:00:57;99160.44;;;20.62;61.98
57000;BME280;42891;50.006;21.964;2022-07-06T10:04:57;99142.13;;;20.66;61.92
57000;BME280;42891;50.006;21.964;2022-07-06T10:08:58;99138.38;;;20.67;59.82
57000;BME280;42891;50.006;21.964;2022-07-06T10:12:59;99141.56;;;20.70;61.85
57000;BME280;42891;50.006;21.964;2022-07-06T10:17:02;99150.25;;;20.79;60.50
57000;BME280;42891;50.006;21.964;2022-07-06T10:21:03;99145.50;;;20.74;58.26
57000;BME280;42891;50.006;21.964;2022-07-06T10:25:04;99131.72;;;20.84;57.98
57000;BME280;42891;50.006;21.964;2022-07-06T10:29:06;99127.66;;;21.08;60.08
57000;BME280;42891;50.006;21.964;2022-07-06T10:33:06;99115.47;;;20.99;58.65
57000;BME280;42891;50.006;21.964;2022-07-06T10:37:22;99118.22;;;21.26;59.30
57000;BME280;42891;50.006;21.964;2022-07-06T10:41:33;99129.84;;;21.46;59.04
57000;BME280;42891;50.006;21.964;2022-07-06T10:49:48;99131.78;;;21.66;57.40
57000;BME280;42891;50.006;21.964;2022-07-06T10:53:58;99130.75;;;21.80;56.83
57000;BME280;42891;50.006;21.964;2022-07-06T10:57:59;99124.97;;;21.84;57.32
57000;BME280;42891;50.006;21.964;2022-07-06T11:02:17;99115.84;;;21.91;57.16
57000;BME280;42891;50.006;21.964;2022-07-06T11:06:19;99140.88;;;22.05;55.91
57000;BME280;42891;50.006;21.964;2022-07-06T11:10:22;99111.72;;;22.02;54.76
57000;BME280;42891;50.006;21.964;2022-07-06T11:14:22;99139.66;;;22.35;58.76
57000;BME280;42891;50.006;21.964;2022-07-06T11:18:23;99120.00;;;22.01;53.52
57000;BME280;42891;50.006;21.964;2022-07-06T11:22:24;99110.50;;;22.05;54.77
57000;BME280;42891;50.006;21.964;2022-07-06T11:26:27;99126.00;;;22.23;54.03
57000;BME280;42891;50.006;21.964;2022-07-06T11:30:28;99114.59;;;22.21;52.49
57000;BME280;42891;50.006;21.964;2022-07-06T11:34:30;99123.28;;;22.50;52.39
57000;BME280;42891;50.006;21.964;2022-07-06T11:38:31;99125.53;;;22.59;52.66
57000;BME280;42891;50.006;21.964;2022-07-06T11:42:31;99125.47;;;22.79;52.00
57000;BME280;42891;50.006;21.964;2022-07-06T11:46:34;99106.41;;;22.81;53.22
57000;BME280;42891;50.006;21.964;2022-07-06T11:50:34;99117.53;;;22.91;49.94
57000;BME280;42891;50.006;21.964;2022-07-06T11:54:35;99112.63;;;22.75;49.76
57000;BME280;42891;50.006;21.964;2022-07-06T11:58:36;99115.53;;;22.73;50.67
57000;BME280;42891;50.006;21.964;2022-07-06T12:02:38;99113.84;;;22.86;50.67
57000;BME280;42891;50.006;21.964;2022-07-06T12:06:39;99102.84;;;22.94;49.28
57000;BME280;42891;50.006;21.964;2022-07-06T12:10:39;99097.41;;;23.07;50.98
57000;BME280;42891;50.006;21.964;2022-07-06T12:14:41;99100.63;;;23.29;51.44
57000;BME280;42891;50.006;21.964;2022-07-06T12:18:43;99099.25;;;23.13;49.29
57000;BME280;42891;50.006;21.964;2022-07-06T12:22:44;99101.56;;;23.03;48.21
57000;BME280;42891;50.006;21.964;2022-07-06T12:26:44;99096.31;;;23.22;49.32
57000;BME280;42891;50.006;21.964;2022-07-06T12:30:45;99091.13;;;23.20;48.35
57000;BME280;42891;50.006;21.964;2022-07-06T12:34:46;99094.13;;;23.37;48.92
57000;BME280;42891;50.006;21.964;2022-07-06T12:38:47;99091.59;;;23.49;47.91
57000;BME280;42891;50.006;21.964;2022-07-06T12:42:48;99097.31;;;23.59;49.12
57000;BME280;42891;50.006;21.964;2022-07-06T12:46:50;99082.56;;;23.62;47.46
57000;BME280;42891;50.006;21.964;2022-07-06T12:50:51;99094.38;;;23.61;46.84
57000;BME280;42891;50.006;21.964;2022-07-06T12:54:51;99082.16;;;23.58;46.92
57000;BME280;42891;50.006;21.964;2022-07-06T12:58:59;99089.44;;;23.58;48.78
57000;BME280;42891;50.006;21.964;2022-07-06T13:03:00;99078.59;;;23.39;48.12
57000;BME280;42891;50.006;21.964;2022-07-06T13:07:01;99092.69;;;23.35;48.46
57000;BME280;42891;50.006;21.964;2022-07-06T13:11:02;99097.81;;;23.04;48.28
57000;BME280;42891;50.006;21.964;2022-07-06T13:15:03;99101.31;;;23.11;48.43
57000;BME280;42891;50.006;21.964;2022-07-06T13:19:04;99102.03;;;22.93;48.95
57000;BME280;42891;50.006;21.964;2022-07-06T13:23:04;99090.66;;;22.78;49.38
57000;BME280;42891;50.006;21.964;2022-07-06T13:27:05;99107.44;;;22.80;50.37
57000;BME280;42891;50.006;21.964;2022-07-06T13:31:06;99113.06;;;22.72;48.95
57000;BME280;42891;50.006;21.964;2022-07-06T13:35:06;99106.22;;;22.76;49.42
57000;BME280;42891;50.006;21.964;2022-07-06T13:39:07;99096.56;;;22.61;49.30
57000;BME280;42891;50.006;21.964;2022-07-06T13:43:07;99099.66;;;22.58;49.72
57000;BME280;42891;50.006;21.964;2022-07-06T13:47:07;99102.59;;;22.43;50.25
57000;BME280;42891;50.006;21.964;2022-07-06T13:51:08;99118.53;;;22.45;49.43
57000;BME280;42891;50.006;21.964;2022-07-06T13:55:08;99128.25;;;22.12;54.47
57000;BME280;42891;50.006;21.964;2022-07-06T13:59:09;99130.16;;;21.92;58.67
57000;BME280;42891;50.006;21.964;2022-07-06T14:03:10;99132.41;;;21.61;59.73
57000;BME280;42891;50.006;21.964;2022-07-06T14:07:10;99132.94;;;21.43;61.90
57000;BME280;42891;50.006;21.964;2022-07-06T14:11:11;99153.69;;;21.08;65.06
57000;BME280;42891;50.006;21.964;2022-07-06T14:15:11;99129.34;;;20.68;66.54
57000;BME280;42891;50.006;21.964;2022-07-06T14:19:11;99149.19;;;20.10;68.83
57000;BME280;42891;50.006;21.964;2022-07-06T14:23:13;99155.25;;;20.54;68.07
57000;BME280;42891;50.006;21.964;2022-07-06T14:27:13;99157.34;;;20.30;69.32
57000;BME280;42891;50.006;21.964;2022-07-06T14:31:13;99162.38;;;20.40;69.04
57000;BME280;42891;50.006;21.964;2022-07-06T14:35:14;99158.06;;;20.46;67.61
57000;BME280;42891;50.006;21.964;2022-07-06T14:39:14;99155.94;;;20.34;67.85
57000;BME280;42891;50.006;21.964;2022-07-06T14:43:15;99154.03;;;20.56;68.02
57000;BME280;42891;50.006;21.964;2022-07-06T14:47:16;99150.44;;;20.42;66.84
57000;BME280;42891;50.006;21.964;2022-07-06T14:51:16;99151.25;;;20.43;67.16
57000;BME280;42891;50.006;21.964;2022-07-06T14:55:17;99159.59;;;20.55;67.32
57000;BME280;42891;50.006;21.964;2022-07-06T14:59:17;99138.75;;;20.57;67.06
57000;BME280;42891;50.006;21.964;2022-07-06T15:03:18;99124.53;;;20.28;66.63
57000;BME280;42891;50.006;21.964;2022-07-06T15:07:18;99137.19;;;20.34;66.18
57000;BME280;42891;50.006;21.964;2022-07-06T15:11:19;99144.16;;;20.29;67.06
57000;BME280;42891;50.006;21.964;2022-07-06T15:15:19;99152.00;;;20.30;66.22
57000;BME280;42891;50.006;21.964;2022-07-06T15:19:19;99140.19;;;20.24;66.28
57000;BME280;42891;50.006;21.964;2022-07-06T15:23:20;99130.78;;;20.07;67.29
57000;BME280;42891;50.006;21.964;2022-07-06T15:27:20;99150.28;;;20.22;68.12
57000;BME280;42891;50.006;21.964;2022-07-06T15:31:21;99135.81;;;20.17;68.19
57000;BME280;42891;50.006;21.964;2022-07-06T15:35:21;99145.28;;;20.41;68.57
57000;BME280;42891;50.006;21.964;2022-07-06T15:39:22;99153.13;;;20.42;69.07
57000;BME280;42891;50.006;21.964;2022-07-06T15:43:22;99142.88;;;20.24;69.81
57000;BME280;42891;50.006;21.964;2022-07-06T15:47:22;99129.09;;;20.27;68.94
57000;BME280;42891;50.006;21.964;2022-07-06T15:51:23;99157.34;;;20.30;68.95
57000;BME280;42891;50.006;21.964;2022-07-06T15:55:24;99154.31;;;20.40;68.99
57000;BME280;42891;50.006;21.964;2022-07-06T15:59:26;99154.66;;;20.58;68.97
57000;BME280;42891;50.006;21.964;2022-07-06T16:03:26;99155.16;;;20.69;69.30
57000;BME280;42891;50.006;21.964;2022-07-06T16:07:27;99143.75;;;20.67;69.04
57000;BME280;42891;50.006;21.964;2022-07-06T16:11:27;99148.59;;;20.78;68.67
57000;BME280;42891;50.006;21.964;2022-07-06T16:15:27;99161.16;;;21.19;67.82
57000;BME280;42891;50.006;21.964;2022-07-06T16:19:28;99147.72;;;21.06;67.99
57000;BME280;42891;50.006;21.964;2022-07-06T16:23:28;99159.25;;;21.61;66.29
57000;BME280;42891;50.006;21.964;2022-07-06T16:27:29;99151.81;;;21.63;66.10
57000;BME280;42891;50.006;21.964;2022-07-06T16:31:29;99151.75;;;21.43;67.13
57000;BME280;42891;50.006;21.964;2022-07-06T16:35:30;99144.31;;;21.45;67.58
57000;BME280;42891;50.006;21.964;2022-07-06T16:39:31;99144.53;;;21.51;67.06
57000;BME280;42891;50.006;21.964;2022-07-06T16:43:32;99140.78;;;21.38;67.44
57000;BME280;42891;50.006;21.964;2022-07-06T16:47:33;99144.09;;;21.34;67.47
57000;BME280;42891;50.006;21.964;2022-07-06T16:51:33;99139.72;;;21.26;68.04
57000;BME280;42891;50.006;21.964;2022-07-06T16:55:35;99146.34;;;21.30;68.24
57000;BME280;42891;50.006;21.964;2022-07-06T16:59:35;99140.94;;;21.23;68.29
57000;BME280;42891;50.006;21.964;2022-07-06T17:03:35;99124.81;;;21.10;68.40
57000;BME280;42891;50.006;21.964;2022-07-06T17:07:36;99138.41;;;21.02;69.86
57000;BME280;42891;50.006;21.964;2022-07-06T17:11:36;99148.69;;;20.98;70.06
57000;BME280;42891;50.006;21.964;2022-07-06T17:15:38;99132.81;;;21.03;69.67
57000;BME280;42891;50.006;21.964;2022-07-06T17:19:38;99134.13;;;20.72;71.08
57000;BME280;42891;50.006;21.964;2022-07-06T17:23:38;99136.50;;;20.95;71.00
57000;BME280;42891;50.006;21.964;2022-07-06T17:27:39;99135.84;;;20.87;71.21
57000;BME280;42891;50.006;21.964;2022-07-06T17:31:39;99135.09;;;20.65;66.44
57000;BME280;42891;50.006;21.964;2022-07-06T17:35:39;99144.47;;;20.82;66.71
57000;BME280;42891;50.006;21.964;2022-07-06T17:39:40;99136.63;;;20.81;66.34
57000;BME280;42891;50.006;21.964;2022-07-06T17:43:40;99119.88;;;20.72;66.39
57000;BME280;42891;50.006;21.964;2022-07-06T17:47:40;99139.97;;;20.83;66.24
57000;BME280;42891;50.006;21.964;2022-07-06T17:51:41;99137.84;;;20.78;65.68
57000;BME280;42891;50.006;21.964;2022-07-06T17:55:41;99157.16;;;20.95;65.96
57000;BME280;42891;50.006;21.964;2022-07-06T17:59:43;99164.16;;;20.96;66.40
57000;BME280;42891;50.006;21.964;2022-07-06T18:03:44;99168.47;;;20.84;65.33
57000;BME280;42891;50.006;21.964;2022-07-06T18:07:44;99174.88;;;20.89;64.65
57000;BME280;42891;50.006;21.964;2022-07-06T18:11:45;99174.41;;;20.79;64.73
57000;BME280;42891;50.006;21.964;2022-07-06T18:15:45;99177.94;;;20.80;64.78
57000;BME280;42891;50.006;21.964;2022-07-06T18:19:45;99163.47;;;20.74;64.07
57000;BME280;42891;50.006;21.964;2022-07-06T18:23:45;99172.84;;;20.63;64.06
57000;BME280;42891;50.006;21.964;2022-07-06T18:27:46;99189.44;;;20.73;63.06
57000;BME280;42891;50.006;21.964;2022-07-06T18:31:46;99170.97;;;20.64;63.25
57000;BME280;42891;50.006;21.964;2022-07-06T18:35:47;99174.69;;;20.63;62.70
57000;BME280;42891;50.006;21.964;2022-07-06T18:39:47;99199.81;;;20.55;63.83
57000;BME280;42891;50.006;21.964;2022-07-06T18:43:48;99208.16;;;20.67;63.79
57000;BME280;42891;50.006;21.964;2022-07-06T18:47:49;99205.03;;;20.63;64.33
57000;BME280;42891;50.006;21.964;2022-07-06T18:51:50;99217.75;;;20.54;65.46
57000;BME280;42891;50.006;21.964;2022-07-06T18:55:50;99235.81;;;20.39;65.86
57000;BME280;42891;50.006;21.964;2022-07-06T18:59:50;99225.78;;;20.48;66.09
57000;BME280;42891;50.006;21.964;2022-07-06T19:03:51;99240.81;;;20.49;66.71
57000;BME280;42891;50.006;21.964;2022-07-06T19:07:51;99235.03;;;20.45;66.88
57000;BME280;42891;50.006;21.964;2022-07-06T19:11:51;99238.88;;;20.36;67.49
57000;BME280;42891;50.006;21.964;2022-07-06T19:15:52;99230.38;;;20.32;67.37
57000;BME280;42891;50.006;21.964;2022-07-06T19:19:52;99238.75;;;20.22;68.19
57000;BME280;42891;50.006;21.964;2022-07-06T19:23:52;99238.25;;;19.90;68.87
57000;BME280;42891;50.006;21.964;2022-07-06T19:27:53;99245.16;;;20.00;68.88
57000;BME280;42891;50.006;21.964;2022-07-06T19:31:53;99248.22;;;19.97;69.22
57000;BME280;42891;50.006;21.964;2022-07-06T19:35:53;99241.31;;;19.87;69.49
57000;BME280;42891;50.006;21.964;2022-07-06T19:39:54;99247.88;;;19.85;68.88
57000;BME280;42891;50.006;21.964;2022-07-06T19:43:54;99250.31;;;19.65;69.24
57000;BME280;42891;50.006;21.964;2022-07-06T19:47:54;99222.94;;;19.48;69.18
57000;BME280;42891;50.006;21.964;2022-07-06T19:51:55;99254.59;;;19.44;69.99
57000;BME280;42891;50.006;21.964;2022-07-06T19:55:56;99258.47;;;19.41;70.35
57000;BME280;42891;50.006;21.964;2022-07-06T19:59:57;99251.59;;;19.17;71.29
57000;BME280;42891;50.006;21.964;2022-07-06T20:03:58;99254.91;;;18.89;72.31
57000;BME280;42891;50.006;21.964;2022-07-06T20:07:59;99263.63;;;18.83;72.49
57000;BME280;42891;50.006;21.964;2022-07-06T20:12:00;99240.31;;;18.39;73.83
57000;BME280;42891;50.006;21.964;2022-07-06T20:16:00;99250.88;;;18.55;73.18
57000;BME280;42891;50.006;21.964;2022-07-06T20:20:01;99251.13;;;18.22;73.65
57000;BME280;42891;50.006;21.964;2022-07-06T20:24:01;99249.75;;;18.12;74.04
57000;BME280;42891;50.006;21.964;2022-07-06T20:28:02;99233.66;;;17.88;74.12
57000;BME280;42891;50.006;21.964;2022-07-06T20:32:02;99274.06;;;17.94;74.90
57000;BME280;42891;50.006;21.964;2022-07-06T20:36:07;99264.88;;;17.96;74.35
57000;BME280;42891;50.006;21.964;2022-07-06T20:40:08;99272.91;;;17.88;75.06
57000;BME280;42891;50.006;21.964;2022-07-06T20:44:09;99274.91;;;17.86;75.06
57000;BME280;42891;50.006;21.964;2022-07-06T20:48:09;99264.56;;;17.91;74.19
57000;BME280;42891;50.006;21.964;2022-07-06T20:52:10;99266.38;;;17.90;74.58
57000;BME280;42891;50.006;21.964;2022-07-06T20:56:10;99276.09;;;17.83;74.37
57000;BME280;42891;50.006;21.964;2022-07-06T21:00:11;99273.78;;;17.80;74.22
57000;BME280;42891;50.006;21.964;2022-07-06T21:04:12;99244.50;;;17.64;74.32